sensor_id;sensor_type;location;lat;lon;timestamp;pressure;altitude;pressure_sealevel;temperature;humidity
46223;BME280;31943;51.410;7.564;2023-04-15T00:00:12;99490.84;;;6.38;60.14
46223;BME280;31943;51.410;7.564;2023-04-15T00:02:42;99489.94;;;6.34;60.37
46223;BME280;31943;51.410;7.564;2023-04-15T00:05:08;99489.00;;;6.31;60.19
46223;BME280;31943;51.410;7.564;2023-04-15T00:07:34;99485.53;;;6.27;60.40
46223;BME280;31943;51.410;7.564;2023-04-15T00:10:01;99494.09;;;6.25;60.36
46223;BME280;31943;51.410;7.564;2023-04-15T00:12:29;99490.59;;;6.21;60.05
46223;BME280;31943;51.410;7.564;2023-04-15T00:14:56;99499.19;;;6.19;60.21
46223;BME280;31943;51.410;7.564;2023-04-15T00:17:23;99485.41;;;6.20;60.55
46223;BME280;31943;51.410;7.564;2023-04-15T00:19:49;99482.78;;;6.18;60.35
46223;BME280;31943;51.410;7.564;2023-04-15T00:22:15;99478.41;;;6.14;60.30
46223;BME280;31943;51.410;7.564;2023-04-15T00:24:42;99492.16;;;6.10;60.24
46223;BME280;31943;51.410;7.564;2023-04-15T00:27:09;99491.25;;;6.06;60.60
46223;BME280;31943;51.410;7.564;2023-04-15T00:29:35;99486.03;;;6.05;60.50
46223;BME280;31943;51.410;7.564;2023-04-15T00:32:02;99479.09;;;6.02;60.61
46223;BME280;31943;51.410;7.564;2023-04-15T00:34:28;99484.25;;;6.01;60.47
46223;BME280;31943;51.410;7.564;2023-04-15T00:36:53;99486.75;;;5.98;60.36
46223;BME280;31943;51.410;7.564;2023-04-15T00:39:19;99487.53;;;5.92;60.43
46223;BME280;31943;51.410;7.564;2023-04-15T00:41:45;99490.03;;;5.87;60.64
46223;BME280;31943;51.410;7.564;2023-04-15T00:44:14;99482.22;;;5.86;60.94
46223;BME280;31943;51.410;7.564;2023-04-15T00:46:40;99481.41;;;5.88;60.69
46223;BME280;31943;51.410;7.564;2023-04-15T00:49:07;99477.97;;;5.89;60.79
46223;BME280;31943;51.410;7.564;2023-04-15T00:51:33;99488.28;;;5.88;60.66
46223;BME280;31943;51.410;7.564;2023-04-15T00:54:02;99494.28;;;5.84;60.87
46223;BME280;31943;51.410;7.564;2023-04-15T00:56:29;99487.34;;;5.81;60.86
46223;BME280;31943;51.410;7.564;2023-04-15T00:58:56;99489.13;;;5.85;60.86
46223;BME280;31943;51.410;7.564;2023-04-15T01:01:28;99502.06;;;5.85;60.88
46223;BME280;31943;51.410;7.564;2023-04-15T01:03:55;99497.75;;;5.84;60.95
46223;BME280;31943;51.410;7.564;2023-04-15T01:06:23;99489.13;;;5.85;60.83
46223;BME280;31943;51.410;7.564;2023-04-15T01:08:49;99489.97;;;5.83;60.92
46223;BME280;31943;51.410;7.564;2023-04-15T01:11:17;99489.88;;;5.80;60.58
46223;BME280;31943;51.410;7.564;2023-04-15T01:13:46;99490.69;;;5.75;60.50
46223;BME280;31943;51.410;7.564;2023-04-15T01:16:11;99491.50;;;5.73;60.67
46223;BME280;31943;51.410;7.564;2023-04-15T01:18:41;99480.31;;;5.72;60.57
46223;BME280;31943;51.410;7.564;2023-04-15T01:21:07;99484.50;;;5.67;60.59
46223;BME280;31943;51.410;7.564;2023-04-15T01:23:38;99487.91;;;5.63;60.55
46223;BME280;31943;51.410;7.564;2023-04-15T01:26:08;99492.13;;;5.60;60.62
46223;BME280;31943;51.410;7.564;2023-04-15T01:28:34;99491.25;;;5.58;60.67
46223;BME280;31943;51.410;7.564;2023-04-15T01:31:07;99491.28;;;5.59;60.58
46223;BME280;31943;51.410;7.564;2023-04-15T01:33:34;99493.00;;;5.59;60.72
46223;BME280;31943;51.410;7.564;2023-04-15T01:36:00;99480.88;;;5.58;60.66
46223;BME280;31943;51.410;7.564;2023-04-15T01:38:27;99485.97;;;5.51;60.74
46223;BME280;31943;51.410;7.564;2023-04-15T01:40:54;99489.38;;;5.49;60.84
46223;BME280;31943;51.410;7.564;2023-04-15T01:43:26;99482.44;;;5.48;61.07
46223;BME280;31943;51.410;7.564;2023-04-15T01:45:51;99479.84;;;5.48;61.09
46223;BME280;31943;51.410;7.564;2023-04-15T01:48:17;99485.88;;;5.48;61.16
46223;BME280;31943;51.410;7.564;2023-04-15T01:50:43;99477.19;;;5.45;60.92
46223;BME280;31943;51.410;7.564;2023-04-15T01:53:12;99477.16;;;5.42;61.03
46223;BME280;31943;51.410;7.564;2023-04-15T01:55:38;99475.41;;;5.41;61.00
46223;BME280;31943;51.410;7.564;2023-04-15T01:58:05;99479.66;;;5.37;60.92
46223;BME280;31943;51.410;7.564;2023-04-15T02:00:32;99487.34;;;5.34;60.66
46223;BME280;31943;51.410;7.564;2023-04-15T02:02:59;99480.44;;;5.31;61.02
46223;BME280;31943;51.410;7.564;2023-04-15T02:05:25;99490.78;;;5.31;60.90
46223;BME280;31943;51.410;7.564;2023-04-15T02:07:51;99483.78;;;5.27;61.03
46223;BME280;31943;51.410;7.564;2023-04-15T02:10:18;99489.81;;;5.26;60.93
46223;BME280;31943;51.410;7.564;2023-04-15T02:12:43;99494.91;;;5.23;61.00
46223;BME280;31943;51.410;7.564;2023-04-15T02:15:10;99494.94;;;5.25;61.14
46223;BME280;31943;51.410;7.564;2023-04-15T02:17:43;99497.47;;;5.23;61.11
46223;BME280;31943;51.410;7.564;2023-04-15T02:20:10;99502.53;;;5.17;60.91
46223;BME280;31943;51.410;7.564;2023-04-15T02:22:36;99499.00;;;5.12;61.25
46223;BME280;31943;51.410;7.564;2023-04-15T02:25:03;99493.88;;;5.15;60.92
46223;BME280;31943;51.410;7.564;2023-04-15T02:27:29;99493.84;;;5.13;61.20
46223;BME280;31943;51.410;7.564;2023-04-15T02:29:56;99493.81;;;5.10;61.08
46223;BME280;31943;51.410;7.564;2023-04-15T02:32:21;99506.69;;;5.09;61.17
46223;BME280;31943;51.410;7.564;2023-04-15T02:34:49;99499.75;;;5.06;61.34
46223;BME280;31943;51.410;7.564;2023-04-15T02:37:15;99510.06;;;5.05;61.25
46223;BME280;31943;51.410;7.564;2023-04-15T02:39:40;99510.94;;;5.04;61.33
46223;BME280;31943;51.410;7.564;2023-04-15T02:42:06;99508.31;;;5.02;61.27
46223;BME280;31943;51.410;7.564;2023-04-15T02:44:33;99510.06;;;5.05;61.57
46223;BME280;31943;51.410;7.564;2023-04-15T02:46:59;99516.09;;;5.05;61.44
46223;BME280;31943;51.410;7.564;2023-04-15T02:49:24;99521.22;;;5.02;61.43
46223;BME280;31943;51.410;7.564;2023-04-15T02:51:53;99523.81;;;5.02;61.33
46223;BME280;31943;51.410;7.564;2023-04-15T02:54:23;99521.22;;;5.02;61.51
46223;BME280;31943;51.410;7.564;2023-04-15T02:56:52;99524.59;;;5.00;61.32
46223;BME280;31943;51.410;7.564;2023-04-15T02:59:19;99521.09;;;4.96;61.12
46223;BME280;31943;51.410;7.564;2023-04-15T03:01:46;99524.47;;;4.93;61.16
46223;BME280;31943;51.410;7.564;2023-04-15T03:04:12;99534.78;;;4.90;61.09
46223;BME280;31943;51.410;7.564;2023-04-15T03:06:37;99534.72;;;4.89;61.25
46223;BME280;31943;51.410;7.564;2023-04-15T03:09:05;99534.72;;;4.89;61.30
46223;BME280;31943;51.410;7.564;2023-04-15T03:11:31;99530.38;;;4.88;61.31
46223;BME280;31943;51.410;7.564;2023-04-15T03:13:57;99531.16;;;4.84;61.39
46223;BME280;31943;51.410;7.564;2023-04-15T03:16:23;99538.84;;;4.79;61.45
46223;BME280;31943;51.410;7.564;2023-04-15T03:18:49;99535.22;;;4.71;61.20
46223;BME280;31943;51.410;7.564;2023-04-15T03:21:15;99538.56;;;4.68;61.58
46223;BME280;31943;51.410;7.564;2023-04-15T03:23:40;99542.94;;;4.69;61.57
46223;BME280;31943;51.410;7.564;2023-04-15T03:26:08;99541.16;;;4.67;61.60
46223;BME280;31943;51.410;7.564;2023-04-15T03:28:33;99532.53;;;4.68;61.56
46223;BME280;31943;51.410;7.564;2023-04-15T03:30:59;99537.78;;;4.71;61.69
46223;BME280;31943;51.410;7.564;2023-04-15T03:33:25;99544.66;;;4.70;61.75
46223;BME280;31943;51.410;7.564;2023-04-15T03:35:51;99547.22;;;4.69;61.70
46223;BME280;31943;51.410;7.564;2023-04-15T03:38:16;99544.56;;;4.66;61.68
46223;BME280;31943;51.410;7.564;2023-04-15T03:40:42;99554.03;;;4.65;61.81
46223;BME280;31943;51.410;7.564;2023-04-15T03:43:09;99550.59;;;4.65;61.79
46223;BME280;31943;51.410;7.564;2023-04-15T03:45:35;99565.19;;;4.64;61.63
46223;BME280;31943;51.410;7.564;2023-04-15T03:48:00;99560.75;;;4.59;61.48
46223;BME280;31943;51.410;7.564;2023-04-15T03:50:26;99562.44;;;4.56;61.66
46223;BME280;31943;51.410;7.564;2023-04-15T03:52:51;99557.25;;;4.55;61.83
46223;BME280;31943;51.410;7.564;2023-04-15T03:55:17;99556.44;;;4.58;61.77
46223;BME280;31943;51.410;7.564;2023-04-15T03:57:43;99556.47;;;4.59;61.62
46223;BME280;31943;51.410;7.564;2023-04-15T04:00:10;99561.56;;;4.56;61.45
46223;BME280;31943;51.410;7.564;2023-04-15T04:02:37;99561.47;;;4.51;61.35
46223;BME280;31943;51.410;7.564;2023-04-15T04:05:02;99557.97;;;4.49;61.38
46223;BME280;31943;51.410;7.564;2023-04-15T04:07:28;99565.66;;;4.46;61.46
46223;BME280;31943;51.410;7.564;2023-04-15T04:09:55;99559.56;;;4.44;61.42
46223;BME280;31943;51.410;7.564;2023-04-15T04:12:20;99556.94;;;4.43;61.72
46223;BME280;31943;51.410;7.564;2023-04-15T04:14:46;99551.72;;;4.40;61.46
46223;BME280;31943;51.410;7.564;2023-04-15T04:17:13;99555.09;;;4.37;61.79
46223;BME280;31943;51.410;7.564;2023-04-15T04:19:39;99559.34;;;4.35;61.63
46223;BME280;31943;51.410;7.564;2023-04-15T04:22:05;99554.19;;;4.35;61.63
46223;BME280;31943;51.410;7.564;2023-04-15T04:24:31;99558.53;;;4.36;61.86
46223;BME280;31943;51.410;7.564;2023-04-15T04:26:57;99563.69;;;4.36;61.77
46223;BME280;31943;51.410;7.564;2023-04-15T04:29:23;99563.69;;;4.36;61.89
46223;BME280;31943;51.410;7.564;2023-04-15T04:31:49;99557.66;;;4.37;61.97
46223;BME280;31943;51.410;7.564;2023-04-15T04:34:17;99564.50;;;4.33;61.91
46223;BME280;31943;51.410;7.564;2023-04-15T04:36:45;99570.44;;;4.31;61.89
46223;BME280;31943;51.410;7.564;2023-04-15T04:39:11;99575.66;;;4.32;61.92
46223;BME280;31943;51.410;7.564;2023-04-15T04:41:39;99576.50;;;4.31;61.78
46223;BME280;31943;51.410;7.564;2023-04-15T04:44:05;99575.59;;;4.29;61.69
46223;BME280;31943;51.410;7.564;2023-04-15T04:46:31;99585.03;;;4.29;61.81
46223;BME280;31943;51.410;7.564;2023-04-15T04:48:57;99591.09;;;4.29;61.64
46223;BME280;31943;51.410;7.564;2023-04-15T04:51:24;99592.78;;;4.29;61.69
46223;BME280;31943;51.410;7.564;2023-04-15T04:53:50;99598.00;;;4.30;61.70
46223;BME280;31943;51.410;7.564;2023-04-15T04:56:15;99600.63;;;4.32;61.67
46223;BME280;31943;51.410;7.564;2023-04-15T04:58:41;99593.69;;;4.31;61.85
46223;BME280;31943;51.410;7.564;2023-04-15T05:01:07;99601.44;;;4.31;62.02
46223;BME280;31943;51.410;7.564;2023-04-15T05:03:33;99607.44;;;4.30;61.86
46223;BME280;31943;51.410;7.564;2023-04-15T05:05:58;99606.53;;;4.28;61.99
46223;BME280;31943;51.410;7.564;2023-04-15T05:08:25;99608.28;;;4.29;62.06
46223;BME280;31943;51.410;7.564;2023-04-15T05:10:51;99609.19;;;4.31;62.23
46223;BME280;31943;51.410;7.564;2023-04-15T05:13:16;99604.94;;;4.33;62.22
46223;BME280;31943;51.410;7.564;2023-04-15T05:15:42;99621.38;;;4.36;62.28
46223;BME280;31943;51.410;7.564;2023-04-15T05:18:08;99623.19;;;4.39;62.29
46223;BME280;31943;51.410;7.564;2023-04-15T05:20:34;99624.13;;;4.43;62.33
46223;BME280;31943;51.410;7.564;2023-04-15T05:23:00;99628.50;;;4.45;62.20
46223;BME280;31943;51.410;7.564;2023-04-15T05:25:27;99625.13;;;4.48;62.50
46223;BME280;31943;51.410;7.564;2023-04-15T05:27:53;99626.13;;;4.54;62.74
46223;BME280;31943;51.410;7.564;2023-04-15T05:30:18;99629.66;;;4.58;62.66
46223;BME280;31943;51.410;7.564;2023-04-15T05:32:44;99631.47;;;4.61;62.70
46223;BME280;31943;51.410;7.564;2023-04-15T05:35:10;99625.44;;;4.62;62.93
46223;BME280;31943;51.410;7.564;2023-04-15T05:37:36;99634.16;;;4.65;62.72
46223;BME280;31943;51.410;7.564;2023-04-15T05:40:01;99640.28;;;4.70;62.73
46223;BME280;31943;51.410;7.564;2023-04-15T05:42:29;99640.41;;;4.75;62.83
46223;BME280;31943;51.410;7.564;2023-04-15T05:44:55;99639.59;;;4.78;62.88
46223;BME280;31943;51.410;7.564;2023-04-15T05:47:20;99649.16;;;4.82;63.08
46223;BME280;31943;51.410;7.564;2023-04-15T05:49:46;99647.56;;;4.87;63.03
46223;BME280;31943;51.410;7.564;2023-04-15T05:52:12;99650.34;;;4.94;63.24
46223;BME280;31943;51.410;7.564;2023-04-15T05:54:38;99657.38;;;5.02;63.39
46223;BME280;31943;51.410;7.564;2023-04-15T05:57:04;99653.19;;;5.07;63.34
46223;BME280;31943;51.410;7.564;2023-04-15T05:59:33;99662.84;;;5.14;63.46
46223;BME280;31943;51.410;7.564;2023-04-15T06:01:59;99663.81;;;5.18;63.17
46223;BME280;31943;51.410;7.564;2023-04-15T06:04:25;99670.75;;;5.20;63.65
46223;BME280;31943;51.410;7.564;2023-04-15T06:06:51;99669.06;;;5.22;63.49
46223;BME280;31943;51.410;7.564;2023-04-15T06:09:16;99672.66;;;5.29;63.52
46223;BME280;31943;51.410;7.564;2023-04-15T06:11:42;99673.72;;;5.37;63.41
46223;BME280;31943;51.410;7.564;2023-04-15T06:14:07;99683.28;;;5.43;63.44
46223;BME280;31943;51.410;7.564;2023-04-15T06:16:35;99686.06;;;5.50;63.61
46223;BME280;31943;51.410;7.564;2023-04-15T06:19:00;99685.31;;;5.56;63.54
46223;BME280;31943;51.410;7.564;2023-04-15T06:21:26;99685.44;;;5.62;63.60
46223;BME280;31943;51.410;7.564;2023-04-15T06:23:52;99686.50;;;5.70;63.67
46223;BME280;31943;51.410;7.564;2023-04-15T06:26:18;99695.25;;;5.77;63.79
46223;BME280;31943;51.410;7.564;2023-04-15T06:28:43;99691.88;;;5.81;64.10
46223;BME280;31943;51.410;7.564;2023-04-15T06:31:09;99692.84;;;5.86;63.66
46223;BME280;31943;51.410;7.564;2023-04-15T06:33:36;99692.03;;;5.89;63.79
46223;BME280;31943;51.410;7.564;2023-04-15T06:36:02;99697.28;;;5.93;63.65
46223;BME280;31943;51.410;7.564;2023-04-15T06:38:28;99701.72;;;5.96;63.93
46223;BME280;31943;51.410;7.564;2023-04-15T06:40:56;99706.19;;;6.05;63.75
46223;BME280;31943;51.410;7.564;2023-04-15T06:43:22;99702.06;;;6.14;63.92
46223;BME280;31943;51.410;7.564;2023-04-15T06:45:49;99703.94;;;6.22;63.88
46223;BME280;31943;51.410;7.564;2023-04-15T06:48:15;99703.16;;;6.27;63.75
46223;BME280;31943;51.410;7.564;2023-04-15T06:50:46;99704.09;;;6.32;63.58
46223;BME280;31943;51.410;7.564;2023-04-15T06:53:22;99710.31;;;6.41;63.33
46223;BME280;31943;51.410;7.564;2023-04-15T06:55:48;99707.81;;;6.45;63.29
46223;BME280;31943;51.410;7.564;2023-04-15T06:58:14;99708.81;;;6.53;63.27
46223;BME280;31943;51.410;7.564;2023-04-15T07:00:42;99709.78;;;6.60;62.95
46223;BME280;31943;51.410;7.564;2023-04-15T07:03:09;99710.75;;;6.65;62.90
46223;BME280;31943;51.410;7.564;2023-04-15T07:05:36;99715.19;;;6.72;62.74
46223;BME280;31943;51.410;7.564;2023-04-15T07:08:04;99715.34;;;6.80;62.76
46223;BME280;31943;51.410;7.564;2023-04-15T07:10:31;99714.63;;;6.90;62.51
46223;BME280;31943;51.410;7.564;2023-04-15T07:12:57;99717.25;;;6.93;62.59
46223;BME280;31943;51.410;7.564;2023-04-15T07:15:24;99720.78;;;6.97;62.87
46223;BME280;31943;51.410;7.564;2023-04-15T07:17:51;99708.78;;;7.04;62.61
46223;BME280;31943;51.410;7.564;2023-04-15T07:20:19;99719.28;;;7.11;63.09
46223;BME280;31943;51.410;7.564;2023-04-15T07:22:46;99715.88;;;7.16;63.07
46223;BME280;31943;51.410;7.564;2023-04-15T07:25:16;99722.09;;;7.27;62.88
46223;BME280;31943;51.410;7.564;2023-04-15T07:27:43;99719.63;;;7.36;62.72
46223;BME280;31943;51.410;7.564;2023-04-15T07:30:09;99720.56;;;7.40;62.91
46223;BME280;31943;51.410;7.564;2023-04-15T07:32:39;99720.66;;;7.46;62.78
46223;BME280;31943;51.410;7.564;2023-04-15T07:37:49;99715.63;;;7.57;62.51
46223;BME280;31943;51.410;7.564;2023-04-15T07:40:18;99716.53;;;7.62;62.53
46223;BME280;31943;51.410;7.564;2023-04-15T07:42:46;99714.94;;;7.71;62.33
46223;BME280;31943;51.410;7.564;2023-04-15T07:45:15;99726.34;;;7.83;62.48
46223;BME280;31943;51.410;7.564;2023-04-15T07:47:42;99722.16;;;7.96;62.63
46223;BME280;31943;51.410;7.564;2023-04-15T07:50:09;99724.03;;;8.06;62.40
46223;BME280;31943;51.410;7.564;2023-04-15T07:52:36;99718.94;;;8.17;62.46
46223;BME280;31943;51.410;7.564;2023-04-15T07:55:04;99726.81;;;8.24;62.27
46223;BME280;31943;51.410;7.564;2023-04-15T07:57:33;99725.19;;;8.34;62.39
46223;BME280;31943;51.410;7.564;2023-04-15T07:59:59;99723.50;;;8.38;62.50
46223;BME280;31943;51.410;7.564;2023-04-15T08:02:25;99726.22;;;8.45;62.20
46223;BME280;31943;51.410;7.564;2023-04-15T08:04:51;99723.75;;;8.59;62.05
46223;BME280;31943;51.410;7.564;2023-04-15T08:07:17;99729.06;;;8.71;62.34
46223;BME280;31943;51.410;7.564;2023-04-15T08:09:43;99730.91;;;8.83;61.87
46223;BME280;31943;51.410;7.564;2023-04-15T08:12:09;99736.22;;;8.97;61.92
46223;BME280;31943;51.410;7.564;2023-04-15T08:14:37;99726.81;;;9.12;61.94
46223;BME280;31943;51.410;7.564;2023-04-15T08:17:02;99732.13;;;9.25;61.73
46223;BME280;31943;51.410;7.564;2023-04-15T08:19:31;99732.19;;;9.38;61.42
46223;BME280;31943;51.410;7.564;2023-04-15T08:21:58;99724.38;;;9.39;61.01
46223;BME280;31943;51.410;7.564;2023-04-15T08:24:26;99728.75;;;9.42;61.15
46223;BME280;31943;51.410;7.564;2023-04-15T08:26:52;99735.63;;;9.37;61.79
46223;BME280;31943;51.410;7.564;2023-04-15T08:29:18;99732.16;;;9.36;61.54
46223;BME280;31943;51.410;7.564;2023-04-15T08:31:49;99733.03;;;9.37;61.95
46223;BME280;31943;51.410;7.564;2023-04-15T08:34:16;99734.78;;;9.36;62.05
46223;BME280;31943;51.410;7.564;2023-04-15T08:36:42;99735.63;;;9.34;62.33
46223;BME280;31943;51.410;7.564;2023-04-15T08:39:08;99734.78;;;9.36;62.13
46223;BME280;31943;51.410;7.564;2023-04-15T08:41:39;99739.97;;;9.33;62.64
46223;BME280;31943;51.410;7.564;2023-04-15T08:44:06;99750.34;;;9.30;62.99
46223;BME280;31943;51.410;7.564;2023-04-15T08:46:32;99746.00;;;9.29;62.95
46223;BME280;31943;51.410;7.564;2023-04-15T08:49:00;99747.81;;;9.39;62.94
46223;BME280;31943;51.410;7.564;2023-04-15T08:51:29;99746.09;;;9.40;62.90
46223;BME280;31943;51.410;7.564;2023-04-15T08:53:55;99751.28;;;9.40;63.17
46223;BME280;31943;51.410;7.564;2023-04-15T08:56:23;99739.16;;;9.42;62.93
46223;BME280;31943;51.410;7.564;2023-04-15T08:58:49;99752.22;;;9.45;62.85
46223;BME280;31943;51.410;7.564;2023-04-15T09:01:15;99749.59;;;9.45;63.12
46223;BME280;31943;51.410;7.564;2023-04-15T09:03:43;99755.63;;;9.41;62.96
46223;BME280;31943;51.410;7.564;2023-04-15T09:06:15;99757.34;;;9.39;63.19
46223;BME280;31943;51.410;7.564;2023-04-15T09:08:41;99764.31;;;9.40;63.25
46223;BME280;31943;51.410;7.564;2023-04-15T09:11:09;99758.28;;;9.45;63.37
46223;BME280;31943;51.410;7.564;2023-04-15T09:13:35;99763.50;;;9.48;63.56
46223;BME280;31943;51.410;7.564;2023-04-15T09:16:01;99768.75;;;9.52;63.51
46223;BME280;31943;51.410;7.564;2023-04-15T09:18:31;99773.97;;;9.55;63.47
46223;BME280;31943;51.410;7.564;2023-04-15T09:21:03;99774.84;;;9.55;63.03
46223;BME280;31943;51.410;7.564;2023-04-15T09:23:31;99780.13;;;9.64;63.00
46223;BME280;31943;51.410;7.564;2023-04-15T09:26:00;99780.16;;;9.74;62.53
46223;BME280;31943;51.410;7.564;2023-04-15T09:28:28;99787.94;;;9.72;62.60
46223;BME280;31943;51.410;7.564;2023-04-15T09:30:57;99785.34;;;9.69;63.17
46223;BME280;31943;51.410;7.564;2023-04-15T09:33:23;99794.00;;;9.68;62.75
46223;BME280;31943;51.410;7.564;2023-04-15T09:35:56;99791.44;;;9.71;63.00
46223;BME280;31943;51.410;7.564;2023-04-15T09:38:22;99793.25;;;9.84;62.81
46223;BME280;31943;51.410;7.564;2023-04-15T09:40:50;99796.75;;;9.91;62.52
46223;BME280;31943;51.410;7.564;2023-04-15T09:43:15;99798.50;;;9.90;62.53
46223;BME280;31943;51.410;7.564;2023-04-15T09:45:47;99794.09;;;9.83;62.46
46223;BME280;31943;51.410;7.564;2023-04-15T09:48:18;99796.69;;;9.77;62.44
46223;BME280;31943;51.410;7.564;2023-04-15T09:50:44;99799.22;;;9.66;62.93
46223;BME280;31943;51.410;7.564;2023-04-15T09:53:19;99801.81;;;9.65;63.11
46223;BME280;31943;51.410;7.564;2023-04-15T09:55:51;99800.97;;;9.67;63.16
46223;BME280;31943;51.410;7.564;2023-04-15T09:58:19;99802.72;;;9.68;63.70
46223;BME280;31943;51.410;7.564;2023-04-15T10:00:46;99806.19;;;9.67;63.47
46223;BME280;31943;51.410;7.564;2023-04-15T10:03:14;99814.00;;;9.64;63.72
46223;BME280;31943;51.410;7.564;2023-04-15T10:05:43;99813.97;;;9.66;63.84
46223;BME280;31943;51.410;7.564;2023-04-15T10:08:10;99815.69;;;9.59;63.60
46223;BME280;31943;51.410;7.564;2023-04-15T10:10:39;99813.91;;;9.54;63.40
46223;BME280;31943;51.410;7.564;2023-04-15T10:13:06;99808.66;;;9.52;63.82
46223;BME280;31943;51.410;7.564;2023-04-15T10:15:35;99813.91;;;9.54;64.34
46223;BME280;31943;51.410;7.564;2023-04-15T10:18:02;99821.72;;;9.58;64.12
46223;BME280;31943;51.410;7.564;2023-04-15T10:20:39;99827.00;;;9.63;64.14
46223;BME280;31943;51.410;7.564;2023-04-15T10:23:06;99822.69;;;9.66;64.15
46223;BME280;31943;51.410;7.564;2023-04-15T10:25:35;99824.41;;;9.66;63.93
46223;BME280;31943;51.410;7.564;2023-04-15T10:28:01;99825.25;;;9.63;64.40
46223;BME280;31943;51.410;7.564;2023-04-15T10:30:30;99830.44;;;9.59;64.62
46223;BME280;31943;51.410;7.564;2023-04-15T10:32:57;99839.06;;;9.52;64.41
46223;BME280;31943;51.410;7.564;2023-04-15T10:35:24;99833.75;;;9.38;64.56
46223;BME280;31943;51.410;7.564;2023-04-15T10:37:50;99831.09;;;9.35;64.89
46223;BME280;31943;51.410;7.564;2023-04-15T10:40:24;99840.63;;;9.33;64.99
46223;BME280;31943;51.410;7.564;2023-04-15T10:42:57;99833.72;;;9.33;65.67
46223;BME280;31943;51.410;7.564;2023-04-15T10:45:34;99836.38;;;9.39;65.62
46223;BME280;31943;51.410;7.564;2023-04-15T10:48:03;99840.75;;;9.43;65.55
46223;BME280;31943;51.410;7.564;2023-04-15T10:50:30;99846.03;;;9.53;65.22
46223;BME280;31943;51.410;7.564;2023-04-15T10:52:56;99846.06;;;9.57;65.36
46223;BME280;31943;51.410;7.564;2023-04-15T10:55:31;99852.09;;;9.53;65.36
46223;BME280;31943;51.410;7.564;2023-04-15T10:57:58;99853.81;;;9.49;65.09
46223;BME280;31943;51.410;7.564;2023-04-15T11:00:25;99852.91;;;9.46;65.40
46223;BME280;31943;51.410;7.564;2023-04-15T11:02:55;99845.94;;;9.42;65.34
46223;BME280;31943;51.410;7.564;2023-04-15T11:08:09;99850.31;;;9.47;65.49
46223;BME280;31943;51.410;7.564;2023-04-15T11:10:51;99855.50;;;9.46;65.81
46223;BME280;31943;51.410;7.564;2023-04-15T11:16:00;99864.19;;;9.43;66.26
46223;BME280;31943;51.410;7.564;2023-04-15T11:18:29;99865.03;;;9.44;66.52
46223;BME280;31943;51.410;7.564;2023-04-15T11:20:56;99866.72;;;9.36;66.54
46223;BME280;31943;51.410;7.564;2023-04-15T11:23:28;99876.19;;;9.30;67.42
46223;BME280;31943;51.410;7.564;2023-04-15T11:25:55;99867.47;;;9.24;67.83
46223;BME280;31943;51.410;7.564;2023-04-15T11:28:27;99873.53;;;9.21;68.22
46223;BME280;31943;51.410;7.564;2023-04-15T11:30:53;99878.69;;;9.17;68.84
46223;BME280;31943;51.410;7.564;2023-04-15T11:33:18;99886.50;;;9.17;68.80
46223;BME280;31943;51.410;7.564;2023-04-15T11:35:46;99894.28;;;9.17;69.03
46223;BME280;31943;51.410;7.564;2023-04-15T11:38:14;99886.44;;;9.10;69.08
46223;BME280;31943;51.410;7.564;2023-04-15T11:40:41;99895.94;;;9.08;69.56
46223;BME280;31943;51.410;7.564;2023-04-15T11:43:09;99895.94;;;9.08;69.91
46223;BME280;31943;51.410;7.564;2023-04-15T11:45:35;99907.28;;;9.15;70.24
46223;BME280;31943;51.410;7.564;2023-04-15T11:48:05;99902.97;;;9.14;70.29
46223;BME280;31943;51.410;7.564;2023-04-15T11:50:32;99900.34;;;9.13;70.54
46223;BME280;31943;51.410;7.564;2023-04-15T11:53:02;99908.16;;;9.14;70.49
46223;BME280;31943;51.410;7.564;2023-04-15T11:55:28;99904.69;;;9.15;70.64
46223;BME280;31943;51.410;7.564;2023-04-15T11:58:09;99903.06;;;9.23;70.57
46223;BME280;31943;51.410;7.564;2023-04-15T12:00:35;99912.59;;;9.24;70.67
46223;BME280;31943;51.410;7.564;2023-04-15T12:03:11;99916.84;;;9.16;70.70
46223;BME280;31943;51.410;7.564;2023-04-15T12:06:07;99918.53;;;9.11;71.12
46223;BME280;31943;51.410;7.564;2023-04-15T12:09:11;99921.97;;;9.08;71.01
46223;BME280;31943;51.410;7.564;2023-04-15T12:11:39;99926.38;;;9.13;71.28
46223;BME280;31943;51.410;7.564;2023-04-15T12:14:07;99929.00;;;9.16;71.59
46223;BME280;31943;51.410;7.564;2023-04-15T12:16:35;99924.69;;;9.18;71.73
46223;BME280;31943;51.410;7.564;2023-04-15T12:19:04;99932.50;;;9.18;71.70
46223;BME280;31943;51.410;7.564;2023-04-15T12:21:35;99935.94;;;9.17;71.47
46223;BME280;31943;51.410;7.564;2023-04-15T12:24:02;99932.50;;;9.18;71.45
46223;BME280;31943;51.410;7.564;2023-04-15T12:26:35;99938.53;;;9.14;71.28
46223;BME280;31943;51.410;7.564;2023-04-15T12:29:01;99942.84;;;9.13;71.70
46223;BME280;31943;51.410;7.564;2023-04-15T12:31:28;99940.28;;;9.15;71.87
46223;BME280;31943;51.410;7.564;2023-04-15T12:33:54;99946.31;;;9.12;71.72
46223;BME280;31943;51.410;7.564;2023-04-15T12:36:20;99956.75;;;9.12;71.96
46223;BME280;31943;51.410;7.564;2023-04-15T12:38:46;99958.47;;;9.12;71.89
46223;BME280;31943;51.410;7.564;2023-04-15T12:41:13;99959.34;;;9.15;72.02
46223;BME280;31943;51.410;7.564;2023-04-15T12:43:46;99969.84;;;9.20;72.06
46223;BME280;31943;51.410;7.564;2023-04-15T12:46:13;99967.22;;;9.18;72.35
46223;BME280;31943;51.410;7.564;2023-04-15T12:48:41;99972.34;;;9.12;71.87
46223;BME280;31943;51.410;7.564;2023-04-15T12:51:08;99975.88;;;9.16;72.41
46223;BME280;31943;51.410;7.564;2023-04-15T12:53:35;99972.38;;;9.15;72.49
46223;BME280;31943;51.410;7.564;2023-04-15T12:56:00;99981.06;;;9.17;72.51
46223;BME280;31943;51.410;7.564;2023-04-15T12:58:26;99982.88;;;9.21;72.76
46223;BME280;31943;51.410;7.564;2023-04-15T13:00:54;99978.56;;;9.25;72.52
46223;BME280;31943;51.410;7.564;2023-04-15T13:03:22;99982.97;;;9.30;72.94
46223;BME280;31943;51.410;7.564;2023-04-15T13:05:48;99983.88;;;9.34;72.82
46223;BME280;31943;51.410;7.564;2023-04-15T13:08:13;99991.72;;;9.36;72.61
46223;BME280;31943;51.410;7.564;2023-04-15T13:10:39;99987.34;;;9.35;72.49
46223;BME280;31943;51.410;7.564;2023-04-15T13:13:05;99992.56;;;9.33;72.60
46223;BME280;31943;51.410;7.564;2023-04-15T13:15:31;99989.06;;;9.34;72.65
46223;BME280;31943;51.410;7.564;2023-04-15T13:18:01;99989.94;;;9.35;72.52